sensor_id;sensor_type;location;lat;lon;timestamp;pressure;altitude;pressure_sealevel;temperature;humidity
39897;BME280;25567;48.276;14.242;2022-07-23T00:00:06;98464.34;;;22.86;88.78
39897;BME280;25567;48.276;14.242;2022-07-23T00:03:14;98452.44;;;22.87;87.32
39897;BME280;25567;48.276;14.242;2022-07-23T00:06:17;98459.25;;;22.84;87.10
39897;BME280;25567;48.276;14.242;2022-07-23T00:09:24;98467.50;;;22.79;86.47
39897;BME280;25567;48.276;14.242;2022-07-23T00:12:27;98467.81;;;22.77;87.55
39897;BME280;25567;48.276;14.242;2022-07-23T00:15:34;98451.75;;;22.81;87.90
39897;BME280;25567;48.276;14.242;2022-07-23T00:18:37;98435.53;;;22.81;88.20
39897;BME280;25567;48.276;14.242;2022-07-23T00:21:54;98418.19;;;22.82;87.83
39897;BME280;25567;48.276;14.242;2022-07-23T00:24:47;98401.97;;;22.82;86.40
39897;BME280;25567;48.276;14.242;2022-07-23T00:28:24;98393.88;;;22.82;86.16
39897;BME280;25567;48.276;14.242;2022-07-23T00:31:27;98378.75;;;22.81;86.60
39897;BME280;25567;48.276;14.242;2022-07-23T00:34:47;98367.16;;;22.80;87.20
39897;BME280;25567;48.276;14.242;2022-07-23T00:37:50;98358.72;;;22.82;86.54
39897;BME280;25567;48.276;14.242;2022-07-23T00:41:07;98341.41;;;22.83;86.21
39897;BME280;25567;48.276;14.242;2022-07-23T00:47:32;98322.94;;;22.85;84.92
39897;BME280;25567;48.276;14.242;2022-07-23T00:50:26;98307.53;;;22.86;84.45
39897;BME280;25567;48.276;14.242;2022-07-23T00:53:44;98312.63;;;22.87;84.61
39897;BME280;25567;48.276;14.242;2022-07-23T00:56:37;98315.00;;;22.89;83.89
39897;BME280;25567;48.276;14.242;2022-07-23T00:59:55;98319.13;;;22.86;84.54
39897;BME280;25567;48.276;14.242;2022-07-23T01:02:59;98302.91;;;22.86;85.17
39897;BME280;25567;48.276;14.242;2022-07-23T01:06:16;98296.22;;;22.83;86.04
39897;BME280;25567;48.276;14.242;2022-07-23T01:09:09;98304.50;;;22.87;84.86
39897;BME280;25567;48.276;14.242;2022-07-23T01:12:26;98340.34;;;23.02;84.96
39897;BME280;25567;48.276;14.242;2022-07-23T01:15:19;98342.56;;;22.99;85.28
39897;BME280;25567;48.276;14.242;2022-07-23T01:18:36;98341.06;;;22.85;86.64
39897;BME280;25567;48.276;14.242;2022-07-23T01:21:41;98341.19;;;22.71;87.92
39897;BME280;25567;48.276;14.242;2022-07-23T01:24:42;98330.97;;;22.59;88.01
39897;BME280;25567;48.276;14.242;2022-07-23T01:27:52;98346.59;;;22.71;87.41
39897;BME280;25567;48.276;14.242;2022-07-23T01:30:56;98367.16;;;22.80;87.43
39897;BME280;25567;48.276;14.242;2022-07-23T01:34:03;98352.97;;;22.75;86.97
39897;BME280;25567;48.276;14.242;2022-07-23T01:37:07;98345.13;;;22.64;88.40
39897;BME280;25567;48.276;14.242;2022-07-23T01:40:24;98328.03;;;22.46;89.06
39897;BME280;25567;48.276;14.242;2022-07-23T01:43:19;98330.19;;;22.36;90.13
39897;BME280;25567;48.276;14.242;2022-07-23T01:46:36;98330.78;;;22.32;90.75
39897;BME280;25567;48.276;14.242;2022-07-23T01:49:31;98329.19;;;22.31;90.85
39897;BME280;25567;48.276;14.242;2022-07-23T01:52:48;98315.91;;;22.35;90.79
39897;BME280;25567;48.276;14.242;2022-07-23T01:55:42;98328.03;;;22.24;91.09
39897;BME280;25567;48.276;14.242;2022-07-23T01:58:59;98320.56;;;22.21;91.28
39897;BME280;25567;48.276;14.242;2022-07-23T02:01:52;98322.00;;;22.04;94.52
39897;BME280;25567;48.276;14.242;2022-07-23T02:05:10;98319.81;;;21.83;94.82
39897;BME280;25567;48.276;14.242;2022-07-23T02:08:04;98327.50;;;21.90;95.42
39897;BME280;25567;48.276;14.242;2022-07-23T02:11:21;98311.97;;;21.96;95.24
39897;BME280;25567;48.276;14.242;2022-07-23T02:14:14;98318.19;;;21.96;95.49
39897;BME280;25567;48.276;14.242;2022-07-23T02:17:31;98318.22;;;21.82;95.18
39897;BME280;25567;48.276;14.242;2022-07-23T02:20:34;98323.06;;;21.72;97.20
39897;BME280;25567;48.276;14.242;2022-07-23T02:23:41;98314.59;;;21.64;97.40
39897;BME280;25567;48.276;14.242;2022-07-23T02:26:44;98327.16;;;21.69;96.45
39897;BME280;25567;48.276;14.242;2022-07-23T02:29:51;98353.16;;;21.51;97.99
39897;BME280;25567;48.276;14.242;2022-07-23T02:32:54;98343.19;;;21.52;96.71
39897;BME280;25567;48.276;14.242;2022-07-23T02:35:54;98350.75;;;21.49;98.08
39897;BME280;25567;48.276;14.242;2022-07-23T02:39:04;98339.09;;;21.54;97.65
39897;BME280;25567;48.276;14.242;2022-07-23T02:42:07;98340.88;;;21.59;96.62
39897;BME280;25567;48.276;14.242;2022-07-23T02:45:14;98328.88;;;21.51;97.15
39897;BME280;25567;48.276;14.242;2022-07-23T02:48:17;98333.28;;;21.47;97.64
39897;BME280;25567;48.276;14.242;2022-07-23T02:51:24;98336.69;;;21.39;98.13
39897;BME280;25567;48.276;14.242;2022-07-23T02:54:27;98336.53;;;21.21;98.88
39897;BME280;25567;48.276;14.242;2022-07-23T02:57:47;98330.53;;;21.24;99.48
39897;BME280;25567;48.276;14.242;2022-07-23T03:00:50;98334.03;;;21.25;98.55
39897;BME280;25567;48.276;14.242;2022-07-23T03:03:57;98348.63;;;21.24;98.09
39897;BME280;25567;48.276;14.242;2022-07-23T03:07:00;98356.72;;;21.24;98.75
39897;BME280;25567;48.276;14.242;2022-07-23T03:10:17;98361.22;;;21.14;100.00
39897;BME280;25567;48.276;14.242;2022-07-23T03:13:10;98360.50;;;21.23;99.63
39897;BME280;25567;48.276;14.242;2022-07-23T03:16:27;98363.88;;;21.28;98.11
39897;BME280;25567;48.276;14.242;2022-07-23T03:19:20;98362.09;;;21.24;99.03
39897;BME280;25567;48.276;14.242;2022-07-23T03:22:37;98375.59;;;21.24;98.54
39897;BME280;25567;48.276;14.242;2022-07-23T03:25:40;98393.66;;;21.23;98.85
39897;BME280;25567;48.276;14.242;2022-07-23T03:28:58;98408.06;;;21.19;99.68
39897;BME280;25567;48.276;14.242;2022-07-23T03:32:01;98415.34;;;21.18;99.81
39897;BME280;25567;48.276;14.242;2022-07-23T03:35:24;98399.66;;;21.20;100.00
39897;BME280;25567;48.276;14.242;2022-07-23T03:38:18;98411.34;;;21.15;100.00
39897;BME280;25567;48.276;14.242;2022-07-23T03:41:35;98421.31;;;21.15;99.70
39897;BME280;25567;48.276;14.242;2022-07-23T03:44:38;98426.22;;;21.13;100.00
39897;BME280;25567;48.276;14.242;2022-07-23T03:47:55;98428.63;;;21.14;100.00
39897;BME280;25567;48.276;14.242;2022-07-23T03:50:58;98461.19;;;21.18;100.00
39897;BME280;25567;48.276;14.242;2022-07-23T03:54:05;98479.78;;;21.33;98.37
39897;BME280;25567;48.276;14.242;2022-07-23T03:57:08;98475.03;;;21.58;95.67
39897;BME280;25567;48.276;14.242;2022-07-23T04:00:15;98475.47;;;21.88;93.23
39897;BME280;25567;48.276;14.242;2022-07-23T04:03:25;98486.34;;;22.11;91.65
39897;BME280;25567;48.276;14.242;2022-07-23T04:06:43;98469.84;;;22.12;91.38
39897;BME280;25567;48.276;14.242;2022-07-23T04:09:36;98469.13;;;22.21;91.14
39897;BME280;25567;48.276;14.242;2022-07-23T04:12:53;98477.31;;;22.15;92.05
39897;BME280;25567;48.276;14.242;2022-07-23T04:15:56;98469.91;;;22.21;91.86
39897;BME280;25567;48.276;14.242;2022-07-23T04:19:13;98472.72;;;22.16;93.04
39897;BME280;25567;48.276;14.242;2022-07-23T04:22:16;98466.44;;;22.07;93.75
39897;BME280;25567;48.276;14.242;2022-07-23T04:25:23;98474.25;;;22.08;93.45
39897;BME280;25567;48.276;14.242;2022-07-23T04:28:26;98474.63;;;22.15;92.69
39897;BME280;25567;48.276;14.242;2022-07-23T04:31:43;98484.34;;;22.16;91.66
39897;BME280;25567;48.276;14.242;2022-07-23T04:34:36;98478.13;;;22.16;91.90
39897;BME280;25567;48.276;14.242;2022-07-23T04:37:53;98481.31;;;22.18;92.37
39897;BME280;25567;48.276;14.242;2022-07-23T04:40:46;98489.34;;;22.09;93.53
39897;BME280;25567;48.276;14.242;2022-07-23T04:44:03;98489.63;;;22.08;94.23
39897;BME280;25567;48.276;14.242;2022-07-23T04:47:06;98490.88;;;22.02;95.83
39897;BME280;25567;48.276;14.242;2022-07-23T04:50:13;98495.38;;;21.92;97.64
39897;BME280;25567;48.276;14.242;2022-07-23T04:53:20;98505.06;;;21.93;99.22
39897;BME280;25567;48.276;14.242;2022-07-23T04:56:27;98514.41;;;21.87;99.46
39897;BME280;25567;48.276;14.242;2022-07-23T04:59:30;98510.56;;;21.88;99.59
39897;BME280;25567;48.276;14.242;2022-07-23T05:02:37;98521.69;;;21.73;100.00
39897;BME280;25567;48.276;14.242;2022-07-23T05:05:40;98523.59;;;21.86;100.00
39897;BME280;25567;48.276;14.242;2022-07-23T05:08:57;98531.59;;;21.91;99.74
39897;BME280;25567;48.276;14.242;2022-07-23T05:12:00;98537.25;;;22.04;98.60
39897;BME280;25567;48.276;14.242;2022-07-23T05:15:17;98533.78;;;22.03;97.80
39897;BME280;25567;48.276;14.242;2022-07-23T05:18:11;98531.38;;;22.02;97.18
39897;BME280;25567;48.276;14.242;2022-07-23T05:21:28;98526.88;;;21.97;96.12
39897;BME280;25567;48.276;14.242;2022-07-23T05:24:21;98533.56;;;21.99;95.35
39897;BME280;25567;48.276;14.242;2022-07-23T05:27:38;98521.94;;;22.13;91.72
39897;BME280;25567;48.276;14.242;2022-07-23T05:30:41;98521.06;;;22.18;92.84
39897;BME280;25567;48.276;14.242;2022-07-23T05:33:58;98514.09;;;22.25;91.28
39897;BME280;25567;48.276;14.242;2022-07-23T05:36:51;98507.91;;;22.39;89.12
39897;BME280;25567;48.276;14.242;2022-07-23T05:40:09;98493.66;;;22.47;88.36
39897;BME280;25567;48.276;14.242;2022-07-23T05:43:03;98495.25;;;22.48;88.53
39897;BME280;25567;48.276;14.242;2022-07-23T05:46:20;98484.81;;;22.55;86.94
39897;BME280;25567;48.276;14.242;2022-07-23T05:49:23;98479.78;;;22.62;87.79
39897;BME280;25567;48.276;14.242;2022-07-23T05:52:41;98482.59;;;22.57;88.07
39897;BME280;25567;48.276;14.242;2022-07-23T05:55:35;98482.31;;;22.59;86.93
39897;BME280;25567;48.276;14.242;2022-07-23T05:58:52;98488.31;;;22.78;86.83
39897;BME280;25567;48.276;14.242;2022-07-23T06:01:55;98487.72;;;22.81;86.70
39897;BME280;25567;48.276;14.242;2022-07-23T06:05:12;98478.13;;;22.75;87.16
39897;BME280;25567;48.276;14.242;2022-07-23T06:08:15;98474.94;;;22.73;86.98
39897;BME280;25567;48.276;14.242;2022-07-23T06:11:32;98477.56;;;22.87;85.89
39897;BME280;25567;48.276;14.242;2022-07-23T06:14:35;98476.66;;;22.92;84.17
39897;BME280;25567;48.276;14.242;2022-07-23T06:17:52;98481.09;;;22.96;84.14
39897;BME280;25567;48.276;14.242;2022-07-23T06:20:45;98479.91;;;23.11;83.03
39897;BME280;25567;48.276;14.242;2022-07-23T06:24:21;98480.03;;;23.29;80.79
39897;BME280;25567;48.276;14.242;2022-07-23T06:27:24;98471.97;;;23.46;79.16
39897;BME280;25567;48.276;14.242;2022-07-23T06:30:41;98471.38;;;23.58;78.29
39897;BME280;25567;48.276;14.242;2022-07-23T06:33:44;98468.69;;;23.67;76.25
39897;BME280;25567;48.276;14.242;2022-07-23T06:36:51;98467.94;;;23.75;75.07
39897;BME280;25567;48.276;14.242;2022-07-23T06:39:54;98476.34;;;23.74;75.59
39897;BME280;25567;48.276;14.242;2022-07-23T06:43:11;98472.06;;;23.81;75.98
39897;BME280;25567;48.276;14.242;2022-07-23T06:46:14;98480.56;;;23.97;74.59
39897;BME280;25567;48.276;14.242;2022-07-23T06:49:21;98475.16;;;24.06;76.14
39897;BME280;25567;48.276;14.242;2022-07-23T06:52:24;98474.69;;;24.13;72.80
39897;BME280;25567;48.276;14.242;2022-07-23T06:55:31;98474.22;;;24.28;71.50
39897;BME280;25567;48.276;14.242;2022-07-23T06:58:34;98475.47;;;24.31;71.61
39897;BME280;25567;48.276;14.242;2022-07-23T07:01:54;98477.25;;;24.36;70.08
39897;BME280;25567;48.276;14.242;2022-07-23T07:05:11;98477.09;;;24.41;68.49
39897;BME280;25567;48.276;14.242;2022-07-23T07:08:14;98477.72;;;24.38;68.42
39897;BME280;25567;48.276;14.242;2022-07-23T07:11:31;98470.06;;;24.40;69.04
39897;BME280;25567;48.276;14.242;2022-07-23T07:14:34;98478.69;;;24.42;68.11
39897;BME280;25567;48.276;14.242;2022-07-23T07:17:51;98481.22;;;24.47;68.42
39897;BME280;25567;48.276;14.242;2022-07-23T07:20:54;98464.00;;;24.52;69.34
39897;BME280;25567;48.276;14.242;2022-07-23T07:24:11;98471.19;;;24.65;68.16
39897;BME280;25567;48.276;14.242;2022-07-23T07:27:04;98455.50;;;24.88;65.07
39897;BME280;25567;48.276;14.242;2022-07-23T07:30:21;98455.81;;;24.95;66.44
39897;BME280;25567;48.276;14.242;2022-07-23T07:33:26;98466.00;;;24.98;64.00
39897;BME280;25567;48.276;14.242;2022-07-23T07:36:37;98467.91;;;25.07;63.95
39897;BME280;25567;48.276;14.242;2022-07-23T07:39:43;98476.00;;;25.15;62.91
39897;BME280;25567;48.276;14.242;2022-07-23T07:42:52;98489.91;;;25.14;62.48
39897;BME280;25567;48.276;14.242;2022-07-23T07:45:56;98503.97;;;25.07;61.19
39897;BME280;25567;48.276;14.242;2022-07-23T07:49:13;98487.19;;;25.14;63.01
39897;BME280;25567;48.276;14.242;2022-07-23T07:52:18;98499.47;;;25.20;64.21
39897;BME280;25567;48.276;14.242;2022-07-23T07:55:35;98499.69;;;25.45;64.52
39897;BME280;25567;48.276;14.242;2022-07-23T07:58:43;98492.97;;;25.51;63.37
39897;BME280;25567;48.276;14.242;2022-07-23T08:01:50;98494.84;;;25.59;65.27
39897;BME280;25567;48.276;14.242;2022-07-23T08:04:53;98500.28;;;25.59;65.63
39897;BME280;25567;48.276;14.242;2022-07-23T08:08:00;98501.44;;;25.50;64.92
39897;BME280;25567;48.276;14.242;2022-07-23T08:11:03;98512.97;;;25.46;64.10
39897;BME280;25567;48.276;14.242;2022-07-23T08:14:10;98503.31;;;25.58;65.29
39897;BME280;25567;48.276;14.242;2022-07-23T08:17:13;98499.75;;;25.36;66.75
39897;BME280;25567;48.276;14.242;2022-07-23T08:20:32;98490.50;;;25.28;68.33
39897;BME280;25567;48.276;14.242;2022-07-23T08:23:35;98480.94;;;25.22;69.63
39897;BME280;25567;48.276;14.242;2022-07-23T08:26:52;98493.66;;;25.39;67.26
39897;BME280;25567;48.276;14.242;2022-07-23T08:29:55;98489.22;;;25.35;70.19
39897;BME280;25567;48.276;14.242;2022-07-23T08:33:07;98493.34;;;25.41;70.39
39897;BME280;25567;48.276;14.242;2022-07-23T08:36:25;98498.16;;;25.26;70.49
39897;BME280;25567;48.276;14.242;2022-07-23T08:39:32;98506.91;;;25.41;71.12
39897;BME280;25567;48.276;14.242;2022-07-23T08:42:35;98515.56;;;25.34;73.99
39897;BME280;25567;48.276;14.242;2022-07-23T08:45:44;98521.94;;;25.29;73.63
39897;BME280;25567;48.276;14.242;2022-07-23T08:48:49;98526.09;;;25.36;73.48
39897;BME280;25567;48.276;14.242;2022-07-23T08:52:06;98527.84;;;25.40;71.81
39897;BME280;25567;48.276;14.242;2022-07-23T08:55:01;98523.03;;;25.46;71.34
39897;BME280;25567;48.276;14.242;2022-07-23T08:58:18;98524.91;;;25.54;69.90
39897;BME280;25567;48.276;14.242;2022-07-23T09:01:22;98535.03;;;25.75;69.03
39897;BME280;25567;48.276;14.242;2022-07-23T09:04:30;98527.50;;;25.80;70.55
39897;BME280;25567;48.276;14.242;2022-07-23T09:07:34;98527.44;;;25.89;67.25
39897;BME280;25567;48.276;14.242;2022-07-23T09:11:01;98531.88;;;25.94;67.03
39897;BME280;25567;48.276;14.242;2022-07-23T09:14:05;98531.56;;;25.95;65.68
39897;BME280;25567;48.276;14.242;2022-07-23T09:17:22;98530.09;;;25.98;66.41
39897;BME280;25567;48.276;14.242;2022-07-23T09:20:25;98521.94;;;25.98;69.63
39897;BME280;25567;48.276;14.242;2022-07-23T09:26:47;98532.22;;;26.22;67.57
39897;BME280;25567;48.276;14.242;2022-07-23T09:30:24;98523.88;;;26.27;67.36
39897;BME280;25567;48.276;14.242;2022-07-23T09:33:27;98521.47;;;26.26;67.53
39897;BME280;25567;48.276;14.242;2022-07-23T09:36:44;98524.53;;;26.24;61.94
39897;BME280;25567;48.276;14.242;2022-07-23T09:39:48;98521.38;;;26.22;64.77
39897;BME280;25567;48.276;14.242;2022-07-23T09:42:55;98513.44;;;26.08;64.13
39897;BME280;25567;48.276;14.242;2022-07-23T09:46:17;98515.72;;;25.97;64.51
39897;BME280;25567;48.276;14.242;2022-07-23T09:49:34;98509.69;;;25.92;64.18
39897;BME280;25567;48.276;14.242;2022-07-23T09:52:47;98519.22;;;26.07;63.98
39897;BME280;25567;48.276;14.242;2022-07-23T09:55:56;98515.31;;;26.17;65.18
39897;BME280;25567;48.276;14.242;2022-07-23T09:59:01;98513.41;;;26.17;62.73
39897;BME280;25567;48.276;14.242;2022-07-23T10:02:12;98511.47;;;26.18;62.57
39897;BME280;25567;48.276;14.242;2022-07-23T10:05:21;98509.47;;;26.27;67.62
39897;BME280;25567;48.276;14.242;2022-07-23T10:08:40;98516.91;;;26.39;63.14
39897;BME280;25567;48.276;14.242;2022-07-23T10:11:44;98510.34;;;26.40;61.39
39897;BME280;25567;48.276;14.242;2022-07-23T10:14:51;98513.50;;;26.42;62.45
39897;BME280;25567;48.276;14.242;2022-07-23T10:17:54;98510.59;;;26.47;60.66
39897;BME280;25567;48.276;14.242;2022-07-23T10:21:05;98515.41;;;26.71;61.59
39897;BME280;25567;48.276;14.242;2022-07-23T10:24:28;98515.56;;;26.87;59.33
39897;BME280;25567;48.276;14.242;2022-07-23T10:34:58;98518.94;;;26.84;55.00
39897;BME280;25567;48.276;14.242;2022-07-23T10:38:12;98521.53;;;27.14;54.71
39897;BME280;25567;48.276;14.242;2022-07-23T10:41:36;98515.31;;;27.26;54.60
39897;BME280;25567;48.276;14.242;2022-07-23T10:44:41;98522.78;;;27.29;53.75
39897;BME280;25567;48.276;14.242;2022-07-23T10:48:14;98515.09;;;27.31;54.80
39897;BME280;25567;48.276;14.242;2022-07-23T10:51:10;98506.94;;;27.43;56.02
39897;BME280;25567;48.276;14.242;2022-07-23T10:54:27;98502.88;;;27.50;52.45
39897;BME280;25567;48.276;14.242;2022-07-23T10:57:30;98500.38;;;27.44;54.38
39897;BME280;25567;48.276;14.242;2022-07-23T11:00:37;98506.16;;;27.43;53.39
39897;BME280;25567;48.276;14.242;2022-07-23T11:03:56;98494.47;;;27.67;54.45
39897;BME280;25567;48.276;14.242;2022-07-23T11:07:15;98490.72;;;27.59;55.33
39897;BME280;25567;48.276;14.242;2022-07-23T11:10:31;98493.44;;;27.59;53.32
39897;BME280;25567;48.276;14.242;2022-07-23T11:13:48;98492.31;;;27.73;55.34
39897;BME280;25567;48.276;14.242;2022-07-23T11:16:46;98495.16;;;28.01;54.91
39897;BME280;25567;48.276;14.242;2022-07-23T11:20:13;98492.50;;;28.05;53.96
39897;BME280;25567;48.276;14.242;2022-07-23T11:23:18;98497.63;;;28.06;55.78
39897;BME280;25567;48.276;14.242;2022-07-23T11:29:44;98494.94;;;28.35;55.08
39897;BME280;25567;48.276;14.242;2022-07-23T11:33:18;98502.72;;;28.49;55.45
39897;BME280;25567;48.276;14.242;2022-07-23T11:36:21;98496.72;;;28.43;54.10
39897;BME280;25567;48.276;14.242;2022-07-23T11:39:47;98494.66;;;28.52;54.81
39897;BME280;25567;48.276;14.242;2022-07-23T11:42:57;98492.38;;;28.54;55.06
39897;BME280;25567;48.276;14.242;2022-07-23T11:46:14;98500.41;;;28.63;55.34
39897;BME280;25567;48.276;14.242;2022-07-23T11:49:17;98500.28;;;28.59;55.30
39897;BME280;25567;48.276;14.242;2022-07-23T11:52:34;98489.44;;;28.47;55.26
39897;BME280;25567;48.276;14.242;2022-07-23T11:55:27;98494.16;;;28.62;55.32
39897;BME280;25567;48.276;14.242;2022-07-23T11:58:54;98488.91;;;28.70;54.38
39897;BME280;25567;48.276;14.242;2022-07-23T12:02:00;98479.75;;;28.78;54.44
39897;BME280;25567;48.276;14.242;2022-07-23T12:05:23;98474.50;;;28.85;53.19
39897;BME280;25567;48.276;14.242;2022-07-23T12:08:16;98470.03;;;28.93;53.87
39897;BME280;25567;48.276;14.242;2022-07-23T12:11:33;98463.34;;;29.06;54.27
39897;BME280;25567;48.276;14.242;2022-07-23T12:14:26;98455.28;;;29.26;53.72
39897;BME280;25567;48.276;14.242;2022-07-23T12:17:45;98459.81;;;29.22;53.43
39897;BME280;25567;48.276;14.242;2022-07-23T12:20:51;98446.78;;;29.31;53.67
39897;BME280;25567;48.276;14.242;2022-07-23T12:24:08;98445.47;;;29.41;52.04
39897;BME280;25567;48.276;14.242;2022-07-23T12:27:12;98441.34;;;29.47;53.18
39897;BME280;25567;48.276;14.242;2022-07-23T12:30:22;98440.22;;;29.68;53.05
39897;BME280;25567;48.276;14.242;2022-07-23T12:36:44;98446.97;;;29.38;51.96
39897;BME280;25567;48.276;14.242;2022-07-23T12:39:49;98441.34;;;29.31;53.42
39897;BME280;25567;48.276;14.242;2022-07-23T12:46:08;98432.69;;;29.45;52.74
39897;BME280;25567;48.276;14.242;2022-07-23T12:49:26;98425.53;;;29.56;51.30
39897;BME280;25567;48.276;14.242;2022-07-23T12:52:29;98417.44;;;29.79;52.28
39897;BME280;25567;48.276;14.242;2022-07-23T12:55:37;98426.09;;;29.82;48.74
39897;BME280;25567;48.276;14.242;2022-07-23T12:59:10;98415.50;;;29.80;49.07
39897;BME280;25567;48.276;14.242;2022-07-23T13:02:18;98421.31;;;29.78;49.24
39897;BME280;25567;48.276;14.242;2022-07-23T13:05:21;98404.25;;;30.01;48.58
39897;BME280;25567;48.276;14.242;2022-07-23T13:08:39;98406.97;;;30.01;49.80
39897;BME280;25567;48.276;14.242;2022-07-23T13:11:33;98405.47;;;30.04;50.13
39897;BME280;25567;48.276;14.242;2022-07-23T13:14:50;98414.69;;;29.95;49.58
39897;BME280;25567;48.276;14.242;2022-07-23T13:17:53;98413.25;;;30.02;50.63
39897;BME280;25567;48.276;14.242;2022-07-23T13:21:02;98405.91;;;30.06;50.92
39897;BME280;25567;48.276;14.242;2022-07-23T13:24:06;98403.03;;;29.99;52.54
39897;BME280;25567;48.276;14.242;2022-07-23T13:27:13;98416.28;;;29.97;50.15
39897;BME280;25567;48.276;14.242;2022-07-23T13:30:18;98405.09;;;30.05;50.13
39897;BME280;25567;48.276;14.242;2022-07-23T13:33:25;98411.09;;;30.11;49.52
39897;BME280;25567;48.276;14.242;2022-07-23T13:36:28;98410.72;;;30.13;50.03
39897;BME280;25567;48.276;14.242;2022-07-23T13:39:45;98413.53;;;30.16;50.57
39897;BME280;25567;48.276;14.242;2022-07-23T13:42:48;98413.47;;;30.13;50.09
39897;BME280;25567;48.276;14.242;2022-07-23T13:46:07;98413.38;;;30.09;50.53
39897;BME280;25567;48.276;14.242;2022-07-23T13:49:01;98418.34;;;30.03;50.65
39897;BME280;25567;48.276;14.242;2022-07-23T13:52:18;98416.69;;;29.99;50.45
39897;BME280;25567;48.276;14.242;2022-07-23T13:55:11;98419.22;;;29.88;51.21
39897;BME280;25567;48.276;14.242;2022-07-23T13:58:29;98417.00;;;29.77;51.81
39897;BME280;25567;48.276;14.242;2022-07-23T14:01:22;98417.31;;;29.72;52.28
39897;BME280;25567;48.276;14.242;2022-07-23T14:04:59;98415.81;;;29.59;53.04
39897;BME280;25567;48.276;14.242;2022-07-23T14:08:16;98425.00;;;29.51;52.78
39897;BME280;25567;48.276;14.242;2022-07-23T14:11:19;98418.69;;;29.31;53.41
39897;BME280;25567;48.276;14.242;2022-07-23T14:14:37;98422.28;;;29.19;54.13
39897;BME280;25567;48.276;14.242;2022-07-23T14:17:42;98424.50;;;29.13;53.38
39897;BME280;25567;48.276;14.242;2022-07-23T14:20:49;98425.84;;;29.03;53.82
39897;BME280;25567;48.276;14.242;2022-07-23T14:23:52;98419.84;;;28.98;54.98
39897;BME280;25567;48.276;14.242;2022-07-23T14:27:09;98415.81;;;28.91;54.24
39897;BME280;25567;48.276;14.242;2022-07-23T14:30:05;98430.06;;;28.85;54.68
39897;BME280;25567;48.276;14.242;2022-07-23T14:33:22;98434.09;;;28.91;55.08
39897;BME280;25567;48.276;14.242;2022-07-23T14:36:26;98426.25;;;28.89;54.92
39897;BME280;25567;48.276;14.242;2022-07-23T14:39:32;98428.81;;;28.82;54.63
39897;BME280;25567;48.276;14.242;2022-07-23T14:42:37;98434.78;;;28.72;54.10
39897;BME280;25567;48.276;14.242;2022-07-23T14:45:45;98425.38;;;28.69;54.56
39897;BME280;25567;48.276;14.242;2022-07-23T14:48:48;98431.66;;;28.57;55.39
39897;BME280;25567;48.276;14.242;2022-07-23T14:52:06;98436.06;;;28.62;55.54
39897;BME280;25567;48.276;14.242;2022-07-23T14:54:59;98429.19;;;28.52;56.00
39897;BME280;25567;48.276;14.242;2022-07-23T14:58:17;98431.41;;;28.62;55.52
39897;BME280;25567;48.276;14.242;2022-07-23T15:01:21;98435.53;;;28.56;53.51
39897;BME280;25567;48.276;14.242;2022-07-23T15:04:33;98427.91;;;28.34;53.25
39897;BME280;25567;48.276;14.242;2022-07-23T15:07:50;98427.13;;;28.33;52.95
39897;BME280;25567;48.276;14.242;2022-07-23T15:10:44;98436.22;;;28.25;53.30
39897;BME280;25567;48.276;14.242;2022-07-23T15:14:02;98438.00;;;28.05;54.35
39897;BME280;25567;48.276;14.242;2022-07-23T15:17:17;98430.53;;;27.89;54.04
39897;BME280;25567;48.276;14.242;2022-07-23T15:20:20;98427.34;;;27.87;54.79
39897;BME280;25567;48.276;14.242;2022-07-23T15:23:39;98424.31;;;27.76;54.60
39897;BME280;25567;48.276;14.242;2022-07-23T15:26:43;98419.09;;;27.71;55.08
39897;BME280;25567;48.276;14.242;2022-07-23T15:29:50;98419.66;;;27.65;55.13
39897;BME280;25567;48.276;14.242;2022-07-23T15:32:53;98422.88;;;27.67;55.86
39897;BME280;25567;48.276;14.242;2022-07-23T15:36:00;98419.00;;;27.55;56.35
39897;BME280;25567;48.276;14.242;2022-07-23T15:39:03;98418.09;;;27.51;56.71
39897;BME280;25567;48.276;14.242;2022-07-23T15:42:25;98415.59;;;27.58;56.87
39897;BME280;25567;48.276;14.242;2022-07-23T15:45:30;98403.91;;;27.58;57.23
39897;BME280;25567;48.276;14.242;2022-07-23T15:48:47;98405.28;;;27.52;57.32
39897;BME280;25567;48.276;14.242;2022-07-23T15:51:40;98405.97;;;27.49;57.88
39897;BME280;25567;48.276;14.242;2022-07-23T15:54:57;98411.09;;;27.38;58.23
39897;BME280;25567;48.276;14.242;2022-07-23T15:57:51;98408.91;;;27.31;57.87
39897;BME280;25567;48.276;14.242;2022-07-23T16:01:08;98410.94;;;27.34;58.51
39897;BME280;25567;48.276;14.242;2022-07-23T16:04:02;98405.28;;;27.39;58.37
39897;BME280;25567;48.276;14.242;2022-07-23T16:07:20;98406.84;;;27.28;59.33
39897;BME280;25567;48.276;14.242;2022-07-23T16:10:28;98406.28;;;27.22;60.18
39897;BME280;25567;48.276;14.242;2022-07-23T16:13:35;98405.72;;;27.29;59.22
39897;BME280;25567;48.276;14.242;2022-07-23T16:16:40;98404.59;;;27.30;59.48
39897;BME280;25567;48.276;14.242;2022-07-23T16:19:47;98401.16;;;27.33;58.92
39897;BME280;25567;48.276;14.242;2022-07-23T16:22:51;98401.19;;;27.21;59.40
39897;BME280;25567;48.276;14.242;2022-07-23T16:25:57;98401.50;;;27.07;60.65
39897;BME280;25567;48.276;14.242;2022-07-23T16:29:00;98412.28;;;27.16;58.97
39897;BME280;25567;48.276;14.242;2022-07-23T16:32:19;98408.41;;;27.04;59.68
39897;BME280;25567;48.276;14.242;2022-07-23T16:35:26;98408.75;;;27.03;59.88
39897;BME280;25567;48.276;14.242;2022-07-23T16:38:33;98417.63;;;27.12;58.96
39897;BME280;25567;48.276;14.242;2022-07-23T16:41:37;98416.72;;;26.95;58.77
39897;BME280;25567;48.276;14.242;2022-07-23T16:44:56;98420.13;;;26.92;59.18
39897;BME280;25567;48.276;14.242;2022-07-23T16:47:57;98424.31;;;26.90;59.24